Mister "b" — WDD2153 — position and weather

sailwx.info

Track history (hours):
 
Tides and Currents Weather Stations Pressure Air Temp Water Temp Dewpoint Dewpoint Depression Visibility Wind Speed Wind Dir Waves Ship Positions

Mister "b"

Owner: Boyson, Inc, Cruz Bay, St John, VI. More information available from US FCC via Universal Licensing System and Coast Guard Vessel Documentation Center.

Last reported at 2017-Sep-04 18:43 UTC. Time now 2017-Nov-22 11:04 UTC.
Position N 18°20' W 064°48'.
Warning: this ship's position is months out of date.

Length 45 m.

Type: Passenger vessel. MMSI: 367111590.

Date/timePositionNaut miles runAvg speedWind from/ knotsBaromVisibWave heightAir tempDewpointWater temp
2017-Sep-04 18:43N 18°20' W 064°48'0 1.0
2017-Sep-04 18:28N 18°20' W 064°48'0 0.0
2017-Sep-04 16:48N 18°20' W 064°48'1 2.2
2017-Sep-04 16:29N 18°19' W 064°48'1 0.5
2017-Sep-04 15:09N 18°20' W 064°48'1 3.6
2017-Sep-04 15:00N 18°19' W 064°48'1 0.4
2017-Sep-04 13:38N 18°20' W 064°48'0 0.1
2017-Sep-04 13:29N 18°20' W 064°48'  
2017-Aug-31 20:38N 18°19' W 064°48'0 2.7
2017-Aug-31 20:29N 18°20' W 064°48'3 1.1
2017-Aug-31 17:48N 18°20' W 064°51'0 0.2
2017-Aug-31 17:30N 18°20' W 064°51'3 1.4
2017-Aug-31 15:15N 18°20' W 064°48'0 0.0
2017-Aug-31 15:00N 18°20' W 064°48'0 0.0
2017-Aug-30 23:01N 18°20' W 064°48'0 0.0
2017-Aug-30 22:59N 18°20' W 064°48'3 6.1
2017-Aug-30 22:29N 18°20' W 064°51'3 6.6
2017-Aug-30 22:01N 18°20' W 064°48'3 3.0
2017-Aug-30 20:59N 18°20' W 064°51'3 6.3
2017-Aug-30 20:29N 18°20' W 064°48'0 0.0
2017-Aug-30 20:00N 18°20' W 064°48'3 4.1
2017-Aug-30 19:15N 18°20' W 064°51'1 4.7
2017-Aug-30 19:00N 18°20' W 064°50'2 3.9
2017-Aug-30 18:30N 18°20' W 064°48'0 0.2
2017-Aug-30 18:00N 18°20' W 064°48'3 5.4
2017-Aug-30 17:26N 18°20' W 064°51'1 1.7
2017-Aug-30 17:00N 18°20' W 064°50'2 4.5
2017-Aug-30 16:30N 18°20' W 064°48'3 4.9
2017-Aug-30 15:55N 18°20' W 064°51'3 7.4
2017-Aug-30 15:30N 18°20' W 064°48'0 0.1
2017-Aug-30 15:00N 18°20' W 064°48'3 3.0
2017-Aug-30 13:58N 18°20' W 064°51'3 6.8
2017-Aug-30 13:30N 18°20' W 064°48'0 0.5
2017-Aug-30 13:00N 18°20' W 064°48'3 2.9
2017-Aug-30 12:01N 18°20' W 064°51'0 0.9
2017-Aug-30 11:58N 18°20' W 064°51'3 6.7
2017-Aug-30 11:30N 18°20' W 064°48'1 1.4
2017-Aug-30 10:59N 18°19' W 064°48'1 0.1
2017-Aug-29 23:05N 18°20' W 064°48'0 0.1
2017-Aug-29 22:59N 18°20' W 064°48'3 5.7
2017-Aug-29 22:27N 18°20' W 064°51'3 6.9
2017-Aug-29 22:00N 18°20' W 064°48'3 3.1
2017-Aug-29 21:00N 18°20' W 064°51'3 6.4
2017-Aug-29 20:31N 18°20' W 064°48'0 0.0
2017-Aug-29 20:00N 18°20' W 064°48'3 5.0
2017-Aug-29 19:22N 18°20' W 064°51'0 0.1
2017-Aug-29 18:58N 18°20' W 064°51'3 4.3
2017-Aug-29 18:15N 18°20' W 064°48'0 0.0
2017-Aug-29 18:00N 18°20' W 064°48'3 5.7
2017-Aug-29 17:27N 18°20' W 064°51'1 1.4
2017-Aug-29 17:00N 18°20' W 064°50'2 4.9
2017-Aug-29 16:30N 18°20' W 064°48'3 6.2
2017-Aug-29 16:00N 18°20' W 064°51'3 6.3
2017-Aug-29 15:30N 18°20' W 064°48'1 1.1
2017-Aug-29 15:00N 18°19' W 064°48'1 0.0
2017-Aug-28 23:14N 18°20' W 064°48'0 0.7
2017-Aug-28 23:00N 18°20' W 064°48'3 5.9
2017-Aug-28 22:30N 18°20' W 064°51'3 6.1
2017-Aug-28 22:00N 18°20' W 064°48'3 6.3
2017-Aug-28 21:30N 18°20' W 064°51'1 1.2
2017-Aug-28 21:00N 18°20' W 064°50'3 5.1
2017-Aug-28 20:30N 18°20' W 064°48'0 0.1
2017-Aug-28 20:00N 18°20' W 064°48'3 6.2
2017-Aug-28 19:30N 18°20' W 064°51'1 1.2
2017-Aug-28 19:00N 18°20' W 064°50'3 5.1
2017-Aug-28 18:30N 18°20' W 064°48'1 1.0
2017-Aug-28 18:00N 18°19' W 064°48'3 2.7
2017-Aug-28 17:02N 18°20' W 064°51'0 8.5
2017-Aug-28 16:59N 18°20' W 064°50'3 5.4
2017-Aug-28 16:30N 18°20' W 064°48'3 5.6
2017-Aug-28 15:58N 18°20' W 064°51'3 6.9
2017-Aug-28 15:30N 18°20' W 064°48'0 0.1
2017-Aug-28 15:00N 18°20' W 064°48'3 3.3
2017-Aug-28 14:03N 18°20' W 064°51'0 0.2
2017-Aug-28 14:00N 18°20' W 064°51'3 6.3
2017-Aug-28 13:30N 18°20' W 064°48'0 0.0
2017-Aug-28 11:30N 18°20' W 064°48'0 0.0
2017-Aug-27 23:48N 18°20' W 064°48'0 0.0
2017-Aug-27 23:30N 18°20' W 064°48'2 4.0
2017-Aug-27 23:00N 18°20' W 064°50'1 1.1
2017-Aug-27 22:30N 18°20' W 064°49'2 0.7
2017-Aug-27 20:01N 18°20' W 064°51'0 3.3
2017-Aug-27 20:00N 18°20' W 064°51'3 6.3
2017-Aug-27 19:31N 18°20' W 064°48'0 0.0
2017-Aug-27 19:00N 18°20' W 064°48'3 3.9
2017-Aug-27 18:12N 18°20' W 064°51'0 1.3
2017-Aug-27 18:00N 18°20' W 064°51'3 5.9
2017-Aug-27 17:30N 18°20' W 064°48'3 2.4
2017-Aug-27 16:12N 18°20' W 064°51'2 8.0
2017-Aug-27 15:58N 18°20' W 064°49'2 1.2
2017-Aug-27 14:23N 18°20' W 064°51'3 1.0
2017-Aug-27 11:22N 18°20' W 064°48'0 0.0
2017-Aug-26 23:19N 18°20' W 064°48'1 3.5
2017-Aug-26 23:00N 18°19' W 064°49'1 2.6
2017-Aug-26 22:30N 18°20' W 064°50'2 4.7
2017-Aug-26 22:00N 18°20' W 064°48'3 2.8
2017-Aug-26 20:56N 18°20' W 064°51'3 7.1
2017-Aug-26 20:30N 18°20' W 064°48'0 0.1
2017-Aug-26 20:00N 18°20' W 064°48'3 2.9
2017-Aug-26 18:59N 18°20' W 064°51'3 6.2
2017-Aug-26 18:30N 18°20' W 064°48'1 1.5
2017-Aug-26 18:00N 18°19' W 064°48'2 2.6
2017-Aug-26 17:07N 18°20' W 064°51'1 8.0
2017-Aug-26 16:59N 18°20' W 064°49'1 2.8
2017-Aug-26 16:30N 18°19' W 064°48'2 2.9
2017-Aug-26 15:53N 18°20' W 064°50'2 5.8
2017-Aug-26 15:30N 18°20' W 064°48'0 0.0
2017-Aug-26 15:00N 18°20' W 064°48'3 2.7
2017-Aug-26 13:56N 18°20' W 064°51'3 6.7
2017-Aug-26 13:30N 18°20' W 064°48'0 0.8
2017-Aug-26 13:00N 18°19' W 064°48'1 1.2
2017-Aug-26 11:46N 18°20' W 064°49'2 0.1
2017-Aug-25 23:10N 18°20' W 064°48'2 4.6
2017-Aug-25 22:42N 18°20' W 064°50'1 3.0
2017-Aug-25 22:25N 18°20' W 064°51'1 0.8
2017-Aug-25 21:37N 18°20' W 064°50'1 8.0
2017-Aug-25 21:30N 18°20' W 064°51'3 2.1
2017-Aug-25 20:02N 18°20' W 064°48'0 0.2
2017-Aug-25 20:01N 18°20' W 064°48'3 6.1
2017-Aug-25 19:30N 18°20' W 064°51'1 1.9
2017-Aug-25 18:59N 18°20' W 064°50'  
Track history (hours):
 
Tides and Currents Weather Stations Pressure Air Temp Water Temp Dewpoint Dewpoint Depression Visibility Wind Speed Wind Dir Waves Ship Positions

Mister "b"

Owner: Boyson, Inc, Cruz Bay, St John, VI. More information available from US FCC via Universal Licensing System and Coast Guard Vessel Documentation Center.

Last reported at 2017-Sep-04 18:43 UTC. Time now 2017-Nov-22 11:04 UTC.
Position N 18°20' W 064°48'.
Warning: this ship's position is months out of date.

Length 45 m.

Type: Passenger vessel. MMSI: 367111590.

Date/timePositionNaut miles runAvg speedWind from/ knotsBaromVisibWave heightAir tempDewpointWater temp
2017-Sep-04 18:43N 18°20' W 064°48'0 1.0
2017-Sep-04 18:28N 18°20' W 064°48'0 0.0
2017-Sep-04 16:48N 18°20' W 064°48'1 2.2
2017-Sep-04 16:29N 18°19' W 064°48'1 0.5
2017-Sep-04 15:09N 18°20' W 064°48'1 3.6
2017-Sep-04 15:00N 18°19' W 064°48'1 0.4
2017-Sep-04 13:38N 18°20' W 064°48'0 0.1
2017-Sep-04 13:29N 18°20' W 064°48'  
2017-Aug-31 20:38N 18°19' W 064°48'0 2.7
2017-Aug-31 20:29N 18°20' W 064°48'3 1.1
2017-Aug-31 17:48N 18°20' W 064°51'0 0.2
2017-Aug-31 17:30N 18°20' W 064°51'3 1.4
2017-Aug-31 15:15N 18°20' W 064°48'0 0.0
2017-Aug-31 15:00N 18°20' W 064°48'0 0.0
2017-Aug-30 23:01N 18°20' W 064°48'0 0.0
2017-Aug-30 22:59N 18°20' W 064°48'3 6.1
2017-Aug-30 22:29N 18°20' W 064°51'3 6.6
2017-Aug-30 22:01N 18°20' W 064°48'3 3.0
2017-Aug-30 20:59N 18°20' W 064°51'3 6.3
2017-Aug-30 20:29N 18°20' W 064°48'0 0.0
2017-Aug-30 20:00N 18°20' W 064°48'3 4.1
2017-Aug-30 19:15N 18°20' W 064°51'1 4.7
2017-Aug-30 19:00N 18°20' W 064°50'2 3.9
2017-Aug-30 18:30N 18°20' W 064°48'0 0.2
2017-Aug-30 18:00N 18°20' W 064°48'3 5.4
2017-Aug-30 17:26N 18°20' W 064°51'1 1.7
2017-Aug-30 17:00N 18°20' W 064°50'2 4.5
2017-Aug-30 16:30N 18°20' W 064°48'3 4.9
2017-Aug-30 15:55N 18°20' W 064°51'3 7.4
2017-Aug-30 15:30N 18°20' W 064°48'0 0.1
2017-Aug-30 15:00N 18°20' W 064°48'3 3.0
2017-Aug-30 13:58N 18°20' W 064°51'3 6.8
2017-Aug-30 13:30N 18°20' W 064°48'0 0.5
2017-Aug-30 13:00N 18°20' W 064°48'3 2.9
2017-Aug-30 12:01N 18°20' W 064°51'0 0.9
2017-Aug-30 11:58N 18°20' W 064°51'3 6.7
2017-Aug-30 11:30N 18°20' W 064°48'1 1.4
2017-Aug-30 10:59N 18°19' W 064°48'1 0.1
2017-Aug-29 23:05N 18°20' W 064°48'0 0.1
2017-Aug-29 22:59N 18°20' W 064°48'3 5.7
2017-Aug-29 22:27N 18°20' W 064°51'3 6.9
2017-Aug-29 22:00N 18°20' W 064°48'3 3.1
2017-Aug-29 21:00N 18°20' W 064°51'3 6.4
2017-Aug-29 20:31N 18°20' W 064°48'0 0.0
2017-Aug-29 20:00N 18°20' W 064°48'3 5.0
2017-Aug-29 19:22N 18°20' W 064°51'0 0.1
2017-Aug-29 18:58N 18°20' W 064°51'3 4.3
2017-Aug-29 18:15N 18°20' W 064°48'0 0.0
2017-Aug-29 18:00N 18°20' W 064°48'3 5.7
2017-Aug-29 17:27N 18°20' W 064°51'1 1.4
2017-Aug-29 17:00N 18°20' W 064°50'2 4.9
2017-Aug-29 16:30N 18°20' W 064°48'3 6.2
2017-Aug-29 16:00N 18°20' W 064°51'3 6.3
2017-Aug-29 15:30N 18°20' W 064°48'1 1.1
2017-Aug-29 15:00N 18°19' W 064°48'1 0.0
2017-Aug-28 23:14N 18°20' W 064°48'0 0.7
2017-Aug-28 23:00N 18°20' W 064°48'3 5.9
2017-Aug-28 22:30N 18°20' W 064°51'3 6.1
2017-Aug-28 22:00N 18°20' W 064°48'3 6.3
2017-Aug-28 21:30N 18°20' W 064°51'1 1.2
2017-Aug-28 21:00N 18°20' W 064°50'3 5.1
2017-Aug-28 20:30N 18°20' W 064°48'0 0.1
2017-Aug-28 20:00N 18°20' W 064°48'3 6.2
2017-Aug-28 19:30N 18°20' W 064°51'1 1.2
2017-Aug-28 19:00N 18°20' W 064°50'3 5.1
2017-Aug-28 18:30N 18°20' W 064°48'1 1.0
2017-Aug-28 18:00N 18°19' W 064°48'3 2.7
2017-Aug-28 17:02N 18°20' W 064°51'0 8.5
2017-Aug-28 16:59N 18°20' W 064°50'3 5.4
2017-Aug-28 16:30N 18°20' W 064°48'3 5.6
2017-Aug-28 15:58N 18°20' W 064°51'3 6.9
2017-Aug-28 15:30N 18°20' W 064°48'0 0.1
2017-Aug-28 15:00N 18°20' W 064°48'3 3.3
2017-Aug-28 14:03N 18°20' W 064°51'0 0.2
2017-Aug-28 14:00N 18°20' W 064°51'3 6.3
2017-Aug-28 13:30N 18°20' W 064°48'0 0.0
2017-Aug-28 11:30N 18°20' W 064°48'0 0.0
2017-Aug-27 23:48N 18°20' W 064°48'0 0.0
2017-Aug-27 23:30N 18°20' W 064°48'2 4.0
2017-Aug-27 23:00N 18°20' W 064°50'1 1.1
2017-Aug-27 22:30N 18°20' W 064°49'2 0.7
2017-Aug-27 20:01N 18°20' W 064°51'0 3.3
2017-Aug-27 20:00N 18°20' W 064°51'3 6.3
2017-Aug-27 19:31N 18°20' W 064°48'0 0.0
2017-Aug-27 19:00N 18°20' W 064°48'3 3.9
2017-Aug-27 18:12N 18°20' W 064°51'0 1.3
2017-Aug-27 18:00N 18°20' W 064°51'3 5.9
2017-Aug-27 17:30N 18°20' W 064°48'3 2.4
2017-Aug-27 16:12N 18°20' W 064°51'2 8.0
2017-Aug-27 15:58N 18°20' W 064°49'2 1.2
2017-Aug-27 14:23N 18°20' W 064°51'3 1.0
2017-Aug-27 11:22N 18°20' W 064°48'0 0.0
2017-Aug-26 23:19N 18°20' W 064°48'1 3.5
2017-Aug-26 23:00N 18°19' W 064°49'1 2.6
2017-Aug-26 22:30N 18°20' W 064°50'2 4.7
2017-Aug-26 22:00N 18°20' W 064°48'3 2.8
2017-Aug-26 20:56N 18°20' W 064°51'3 7.1
2017-Aug-26 20:30N 18°20' W 064°48'0 0.1
2017-Aug-26 20:00N 18°20' W 064°48'3 2.9
2017-Aug-26 18:59N 18°20' W 064°51'3 6.2
2017-Aug-26 18:30N 18°20' W 064°48'1 1.5
2017-Aug-26 18:00N 18°19' W 064°48'2 2.6
2017-Aug-26 17:07N 18°20' W 064°51'1 8.0
2017-Aug-26 16:59N 18°20' W 064°49'1 2.8
2017-Aug-26 16:30N 18°19' W 064°48'2 2.9
2017-Aug-26 15:53N 18°20' W 064°50'2 5.8
2017-Aug-26 15:30N 18°20' W 064°48'0 0.0
2017-Aug-26 15:00N 18°20' W 064°48'3 2.7
2017-Aug-26 13:56N 18°20' W 064°51'3 6.7
2017-Aug-26 13:30N 18°20' W 064°48'0 0.8
2017-Aug-26 13:00N 18°19' W 064°48'1 1.2
2017-Aug-26 11:46N 18°20' W 064°49'2 0.1
2017-Aug-25 23:10N 18°20' W 064°48'2 4.6
2017-Aug-25 22:42N 18°20' W 064°50'1 3.0
2017-Aug-25 22:25N 18°20' W 064°51'1 0.8
2017-Aug-25 21:37N 18°20' W 064°50'1 8.0
2017-Aug-25 21:30N 18°20' W 064°51'3 2.1
2017-Aug-25 20:02N 18°20' W 064°48'0 0.2
2017-Aug-25 20:01N 18°20' W 064°48'3 6.1
2017-Aug-25 19:30N 18°20' W 064°51'1 1.9
2017-Aug-25 18:59N 18°20' W 064°50'  

Dump ship's entire track history